Time;durP1;ratioP1;P1;durP2;ratioP2;P2;SDS_P1;SDS_P2;PMS_P1;PMS_P2;Temp;Humidity;BMP_temperature;BMP_pressure;BME280_temperature;BME280_humidity;BME280_pressure;Samples;Min_cycle;Max_cycle;Signal;HPM_P1;HPM_P2
2021/11/09 00:01:44;;;;;;;2.83;1.60;;;17.60;71.40;;;;;;10335288;28;20045;-47
2021/11/09 00:06:54;;;;;;;2.00;1.10;;;17.60;71.30;;;;;;10340147;28;20375;-48
2021/11/09 00:11:55;;;;;;;2.72;1.42;;;17.70;71.20;;;;;;10354567;28;20038;-48
2021/11/09 00:16:57;;;;;;;2.15;1.25;;;17.60;71.00;;;;;;10331821;28;20058;-48
2021/11/09 00:21:58;;;;;;;2.58;1.10;;;17.60;71.10;;;;;;10345123;28;20034;-49
2021/11/09 00:26:59;;;;;;;2.92;1.33;;;17.60;71.10;;;;;;10331173;28;20109;-49
2021/11/09 00:31:59;;;;;;;3.47;1.10;;;17.60;71.20;;;;;;10337474;28;20026;-48
2021/11/09 00:37:00;;;;;;;4.75;1.17;;;17.50;71.20;;;;;;10331184;28;20066;-51
2021/11/09 00:42:01;;;;;;;4.38;2.00;;;17.50;71.30;;;;;;10343740;28;20037;-48
2021/11/09 00:47:02;;;;;;;2.42;1.02;;;17.60;71.00;;;;;;10336259;28;20047;-49
2021/11/09 00:52:05;;;;;;;3.78;1.65;;;17.70;70.90;;;;;;10357862;28;20083;-49
2021/11/09 00:57:05;;;;;;;3.38;1.40;;;17.60;70.80;;;;;;10376818;28;20026;-51
2021/11/09 01:02:07;;;;;;;2.90;1.50;;;17.70;70.70;;;;;;10378076;28;20042;-49
2021/11/09 01:07:07;;;;;;;3.83;1.30;;;17.70;70.60;;;;;;10357188;28;20036;-49
2021/11/09 01:12:10;;;;;;;2.15;1.33;;;17.60;70.60;;;;;;10366105;28;20117;-48
2021/11/09 01:17:12;;;;;;;2.05;1.15;;;17.60;70.70;;;;;;10337584;28;20532;-49
2021/11/09 01:22:13;;;;;;;2.58;1.10;;;17.60;70.70;;;;;;10337578;28;20045;-49
2021/11/09 01:27:13;;;;;;;2.33;1.02;;;17.60;70.60;;;;;;10341489;28;20037;-48
2021/11/09 01:32:14;;;;;;;2.92;1.48;;;17.60;70.60;;;;;;10337182;28;20370;-49
2021/11/09 01:37:15;;;;;;;2.42;1.42;;;17.60;70.70;;;;;;10338485;28;20117;-49
2021/11/09 01:42:16;;;;;;;3.25;1.30;;;17.60;70.60;;;;;;10340987;28;20462;-50
2021/11/09 01:47:18;;;;;;;2.25;1.38;;;17.60;70.60;;;;;;10348223;28;20429;-49
2021/11/09 01:52:18;;;;;;;2.63;1.30;;;17.60;70.60;;;;;;10376417;28;20359;-50
2021/11/09 01:57:19;;;;;;;3.42;1.17;;;17.60;70.60;;;;;;10364428;28;20037;-49
2021/11/09 02:02:20;;;;;;;1.88;1.23;;;17.60;70.50;;;;;;10376621;28;20049;-48
2021/11/09 02:07:21;;;;;;;1.73;1.00;;;17.60;70.60;;;;;;10373046;28;20041;-48
2021/11/09 02:12:22;;;;;;;3.05;1.25;;;17.60;70.50;;;;;;10354711;28;20371;-48
2021/11/09 02:17:24;;;;;;;2.05;1.20;;;17.60;70.40;;;;;;10345489;28;20050;-50
2021/11/09 02:22:27;;;;;;;2.50;1.50;;;17.60;70.30;;;;;;10343392;28;20044;-49
2021/11/09 02:27:27;;;;;;;3.78;1.30;;;17.70;70.20;;;;;;10348901;28;20057;-49
2021/11/09 02:32:28;;;;;;;2.90;1.20;;;17.70;70.10;;;;;;10374927;28;20128;-53
2021/11/09 02:37:29;;;;;;;1.98;0.90;;;17.70;70.10;;;;;;10374059;28;20040;-49
2021/11/09 02:42:38;;;;;;;2.38;1.23;;;17.70;70.10;;;;;;10374669;28;20470;-47
2021/11/09 02:47:55;;;;;;;2.53;1.40;;;17.60;70.10;;;;;;10374419;28;20049;-49
2021/11/09 02:53:05;;;;;;;3.30;1.50;;;17.70;70.20;;;;;;10374223;28;20022;-50
2021/11/09 02:58:13;;;;;;;2.72;1.38;;;17.70;70.10;;;;;;10366663;28;20034;-49
2021/11/09 03:03:22;;;;;;;3.55;1.42;;;17.60;70.20;;;;;;10373077;28;20540;-50
2021/11/09 03:08:34;;;;;;;;;;;17.70;70.20;;;;;;10374313;28;20488;-49
2021/11/09 03:13:36;;;;;;;2.85;1.20;;;17.70;70.10;;;;;;10342886;28;20321;-48
2021/11/09 03:18:43;;;;;;;1.77;1.02;;;17.60;70.10;;;;;;10333076;28;20052;-49
2021/11/09 03:45:02;;;;;;;2.03;1.05;;;17.70;69.80;;;;;;10371503;28;20049;-49
2021/11/09 03:50:07;;;;;;;2.53;1.17;;;17.70;69.80;;;;;;10372494;28;20033;-50
2021/11/09 03:55:12;;;;;;;1.95;1.10;;;17.70;69.80;;;;;;10350037;28;20042;-48
2021/11/09 04:00:26;;;;;;;2.53;1.30;;;17.70;69.80;;;;;;10331994;28;20477;-49
2021/11/09 04:05:35;;;;;;;1.65;0.98;;;17.70;69.80;;;;;;10354677;28;20034;-50
2021/11/09 04:16:19;;;;;;;2.55;1.20;;;17.60;69.70;;;;;;10331529;28;20038;-49
2021/11/09 04:39:01;;;;;;;2.22;1.35;;;17.70;69.80;;;;;;10379524;28;20060;-49
2021/11/09 05:08:43;;;;;;;4.07;1.40;;;17.70;69.50;;;;;;10377748;28;20045;-49
2021/11/09 05:13:44;;;;;;;2.35;1.30;;;17.70;69.60;;;;;;10363314;28;20452;-49
2021/11/09 05:18:44;;;;;;;2.63;1.40;;;17.70;69.50;;;;;;10337674;28;20037;-52
2021/11/09 05:23:45;;;;;;;2.88;1.60;;;17.70;69.40;;;;;;10350709;28;20113;-49
2021/11/09 05:28:46;;;;;;;2.50;1.15;;;17.70;69.50;;;;;;10377774;28;20083;-50
2021/11/09 05:33:47;;;;;;;2.97;1.90;;;17.70;69.40;;;;;;10377567;28;20076;-49
2021/11/09 05:38:56;;;;;;;2.72;1.20;;;17.70;69.40;;;;;;10376626;28;20065;-48
2021/11/09 05:43:57;;;;;;;2.38;1.23;;;17.80;69.30;;;;;;10365770;28;20723;-51
2021/11/09 05:48:57;;;;;;;3.28;1.40;;;18.00;68.50;;;;;;10345378;28;20034;-48
2021/11/09 05:54:00;;;;;;;2.25;1.25;;;18.20;68.80;;;;;;10376852;28;20123;-50
2021/11/09 05:59:01;;;;;;;4.32;1.73;;;18.30;68.50;;;;;;10375281;28;20069;-49
2021/11/09 06:04:02;;;;;;;3.15;1.33;;;18.40;68.70;;;;;;10376127;28;20402;-49
2021/11/09 06:09:03;;;;;;;3.35;1.55;;;18.50;68.40;;;;;;10373426;28;20124;-50
2021/11/09 06:14:06;;;;;;;2.85;1.58;;;18.60;68.40;;;;;;10375961;28;20026;-48
2021/11/09 06:19:07;;;;;;;3.13;1.10;;;18.50;68.30;;;;;;10375829;28;20068;-51
2021/11/09 06:24:07;;;;;;;3.08;1.50;;;18.60;68.70;;;;;;10373474;28;20494;-46
2021/11/09 06:29:08;;;;;;;4.07;1.60;;;18.60;69.60;;;;;;10353137;28;20113;-48
2021/11/09 06:34:09;;;;;;;6.85;1.63;;;18.60;69.00;;;;;;10363494;28;20121;-47
2021/11/09 06:39:10;;;;;;;7.93;1.75;;;18.60;69.30;;;;;;10371766;28;20030;-47
2021/11/09 06:44:10;;;;;;;7.30;1.73;;;18.60;69.00;;;;;;10340949;28;20525;-48
2021/11/09 06:49:11;;;;;;;11.63;2.25;;;18.70;69.00;;;;;;10332247;28;20034;-45
2021/11/09 06:54:12;;;;;;;7.72;2.35;;;18.70;68.30;;;;;;10373309;28;20053;-45
2021/11/09 06:59:15;;;;;;;10.32;2.58;;;18.50;68.30;;;;;;10373288;28;20056;-45
2021/11/09 07:04:15;;;;;;;14.43;3.10;;;18.50;67.80;;;;;;10371807;28;20025;-45
2021/11/09 07:09:18;;;;;;;4.68;2.38;;;18.50;67.90;;;;;;10372461;28;20489;-46
2021/11/09 07:14:19;;;;;;;4.70;2.28;;;18.50;68.00;;;;;;10336161;28;20033;-47
2021/11/09 07:19:20;;;;;;;8.27;2.30;;;18.50;67.90;;;;;;10333723;28;20125;-46
2021/11/09 07:24:22;;;;;;;5.38;3.03;;;18.50;67.90;;;;;;10331851;28;20022;-47
2021/11/09 07:29:23;;;;;;;4.65;2.22;;;18.50;67.90;;;;;;10331903;28;20058;-46
2021/11/09 07:34:25;;;;;;;7.70;2.75;;;18.50;67.80;;;;;;10344376;28;20449;-46
2021/11/09 07:39:25;;;;;;;4.38;2.33;;;18.60;67.60;;;;;;10366324;28;20614;-49
2021/11/09 07:44:26;;;;;;;5.07;2.13;;;18.60;67.70;;;;;;10345460;28;20179;-45
2021/11/09 07:49:28;;;;;;;5.80;2.72;;;18.60;67.60;;;;;;10356099;28;20022;-46
2021/11/09 07:54:33;;;;;;;4.00;2.55;;;18.50;67.60;;;;;;10358041;28;20073;-45
2021/11/09 08:05:02;;;;;;;7.78;2.78;;;18.60;67.60;;;;;;10354577;28;20037;-46
2021/11/09 08:10:06;;;;;;;6.65;2.55;;;18.60;67.40;;;;;;10351618;28;20042;-47
2021/11/09 08:15:07;;;;;;;4.68;2.42;;;18.60;67.40;;;;;;10355827;28;20536;-46
2021/11/09 08:20:08;;;;;;;4.55;2.08;;;18.60;67.30;;;;;;10351169;28;20034;-46
2021/11/09 08:25:09;;;;;;;6.05;2.72;;;18.60;67.50;;;;;;10329791;28;20030;-49
2021/11/09 08:30:11;;;;;;;5.50;2.47;;;18.50;67.80;;;;;;10331339;28;20035;-47
2021/11/09 08:35:13;;;;;;;5.45;2.70;;;18.40;68.30;;;;;;10365394;28;20037;-48
2021/11/09 08:40:18;;;;;;;3.88;2.53;;;18.30;68.60;;;;;;10348039;28;20036;-47
2021/11/09 08:50:29;;;;;;;4.57;3.08;;;18.00;69.60;;;;;;10350357;28;20144;-47
2021/11/09 08:56:17;;;;;;;4.03;2.20;;;18.00;69.60;;;;;;10353788;28;20185;-46
2021/11/09 09:01:41;;;;;;;3.67;2.28;;;18.00;69.80;;;;;;10332187;28;20042;-47
2021/11/09 09:06:18;;;;;;;5.60;2.78;;;17.90;69.90;;;;;;10343626;28;20423;-47
2021/11/09 09:11:19;;;;;;;5.63;2.33;;;17.90;70.20;;;;;;10342916;28;20120;-46
2021/11/09 09:16:21;;;;;;;5.82;2.40;;;17.90;70.30;;;;;;10345256;28;20026;-47
2021/11/09 09:27:08;;;;;;;3.65;2.00;;;18.00;70.30;;;;;;10344902;28;20042;-48
2021/11/09 09:32:29;;;;;;;5.53;2.55;;;18.00;70.30;;;;;;10348846;28;20028;-48
2021/11/09 09:58:34;;;;;;;4.82;2.30;;;18.00;70.60;;;;;;10362615;28;20081;-49
2021/11/09 10:03:39;;;;;;;5.68;2.70;;;17.90;70.70;;;;;;10371515;28;20715;-50
2021/11/09 10:08:50;;;;;;;6.93;2.67;;;17.90;71.30;;;;;;10335781;28;20035;-49
2021/11/09 10:13:51;;;;;;;3.85;2.22;;;17.90;70.70;;;;;;10358925;28;20458;-49
2021/11/09 10:18:51;;;;;;;5.10;2.55;;;18.00;70.70;;;;;;10335559;28;20030;-51
2021/11/09 10:23:52;;;;;;;6.75;3.05;;;17.90;70.60;;;;;;10370432;28;20105;-49
2021/11/09 10:28:53;;;;;;;4.82;2.60;;;17.90;70.50;;;;;;10374508;28;20122;-48
2021/11/09 10:33:54;;;;;;;6.22;3.50;;;17.90;70.40;;;;;;10346649;28;20026;-49
2021/11/09 10:39:19;;;;;;;5.78;2.40;;;17.90;70.50;;;;;;10375247;28;20113;-47
2021/11/09 10:44:32;;;;;;;8.48;2.78;;;17.90;71.10;;;;;;10374878;28;20099;-49
2021/11/09 10:49:55;;;;;;;5.57;2.78;;;18.00;70.50;;;;;;10373492;28;20096;-49
2021/11/09 10:55:04;;;;;;;4.15;2.38;;;18.00;71.00;;;;;;10374477;28;20033;-49
2021/11/09 11:05:21;;;;;;;5.00;2.30;;;18.00;71.00;;;;;;10373286;28;20281;-48
2021/11/09 11:10:32;;;;;;;3.25;1.92;;;18.00;70.30;;;;;;10366989;28;20089;-50
2021/11/09 11:15:33;;;;;;;6.22;2.58;;;18.00;70.30;;;;;;10336160;28;20026;-49
2021/11/09 11:20:33;;;;;;;5.45;2.30;;;18.00;70.50;;;;;;10368002;28;20393;-48
2021/11/09 11:25:34;;;;;;;4.90;2.85;;;17.90;70.60;;;;;;10356011;28;20402;-46
2021/11/09 11:30:35;;;;;;;6.10;2.67;;;17.80;70.60;;;;;;10356904;28;20038;-44
2021/11/09 11:35:36;;;;;;;4.45;2.80;;;17.90;70.80;;;;;;10354963;28;20037;-47
2021/11/09 11:40:37;;;;;;;4.85;2.35;;;17.80;70.90;;;;;;10365882;28;20228;-48
2021/11/09 11:45:51;;;;;;;4.68;2.85;;;17.80;70.90;;;;;;10343462;28;20607;-49
2021/11/09 11:50:52;;;;;;;6.45;2.63;;;17.80;70.90;;;;;;10348589;28;20034;-46
2021/11/09 11:55:53;;;;;;;6.13;2.88;;;17.80;71.00;;;;;;10330611;28;20033;-47
2021/11/09 12:00:56;;;;;;;6.78;2.85;;;17.80;71.20;;;;;;10357088;28;20121;-47
2021/11/09 12:05:59;;;;;;;5.28;3.00;;;17.80;71.20;;;;;;10349300;28;20152;-49
2021/11/09 12:11:02;;;;;;;7.20;2.80;;;17.80;70.80;;;;;;10364779;28;20169;-46
2021/11/09 12:16:03;;;;;;;4.00;2.63;;;17.80;71.00;;;;;;10343456;28;20033;-45
2021/11/09 12:21:34;;;;;;;7.80;2.78;;;17.70;71.10;;;;;;10328828;28;20038;-47
2021/11/09 12:26:59;;;;;;;7.38;2.85;;;17.60;71.20;;;;;;10329652;28;20026;-47
2021/11/09 12:32:34;;;;;;;5.35;2.13;;;17.60;71.40;;;;;;10333195;28;20066;-47
2021/11/09 12:37:44;;;;;;;3.80;2.20;;;17.60;71.40;;;;;;10361531;28;20482;-47
2021/11/09 12:43:04;;;;;;;7.00;2.65;;;17.60;71.40;;;;;;10370754;28;20043;-53
2021/11/09 12:48:09;;;;;;;4.70;3.22;;;17.60;71.40;;;;;;10370234;28;20049;-46
2021/11/09 12:53:13;;;;;;;8.23;2.70;;;17.50;71.40;;;;;;10367770;28;20034;-47
2021/11/09 12:58:21;;;;;;;3.08;2.10;;;17.60;71.70;;;;;;10366201;28;20379;-46
2021/11/09 13:03:28;;;;;;;5.88;2.65;;;17.60;71.30;;;;;;10372899;28;20034;-46
2021/11/09 13:08:40;;;;;;;2.97;2.17;;;17.60;71.20;;;;;;10378570;28;20041;-47
2021/11/09 13:13:41;;;;;;;4.68;2.45;;;17.60;71.10;;;;;;10346908;28;20030;-50
2021/11/09 13:18:42;;;;;;;4.82;2.40;;;17.60;71.10;;;;;;10370528;28;20056;-49
2021/11/09 13:23:43;;;;;;;12.93;3.80;;;17.60;70.80;;;;;;10360405;28;20080;-47
2021/11/09 13:28:44;;;;;;;9.30;2.90;;;17.70;70.80;;;;;;10342506;28;20033;-48
2021/11/09 13:33:49;;;;;;;10.60;2.58;;;18.00;70.70;;;;;;10376339;28;20129;-46
2021/11/09 13:38:50;;;;;;;18.80;3.95;;;18.00;70.50;;;;;;10377285;28;20087;-46
2021/11/09 13:43:55;;;;;;;15.20;3.30;;;18.10;70.70;;;;;;10375863;28;20084;-46
2021/11/09 13:49:03;;;;;;;12.73;3.63;;;18.10;70.90;;;;;;10375375;28;20117;-47
2021/11/09 13:54:14;;;;;;;8.43;2.90;;;18.00;71.00;;;;;;10376286;28;20057;-46
2021/11/09 13:59:26;;;;;;;5.65;2.55;;;18.00;71.30;;;;;;10349558;28;20529;-46
2021/11/09 14:14:58;;;;;;;15.25;4.85;;;17.90;71.20;;;;;;10346556;28;20046;-49
2021/11/09 14:20:22;;;;;;;12.95;4.10;;;17.90;71.10;;;;;;10349904;28;20110;-51
2021/11/09 14:25:27;;;;;;;11.88;4.97;;;17.70;70.40;;;;;;10336236;28;20042;-53
2021/11/09 14:30:29;;;;;;;8.68;4.03;;;17.80;69.40;;;;;;10353775;28;20389;-53
2021/11/09 14:35:34;;;;;;;11.50;4.50;;;18.00;68.00;;;;;;10347078;28;20489;-54
2021/11/09 14:40:59;;;;;;;10.45;4.22;;;18.20;67.10;;;;;;10375084;28;20498;-55
2021/11/09 14:46:15;;;;;;;7.40;3.90;;;18.20;66.70;;;;;;10363017;28;20046;-54
2021/11/09 14:51:31;;;;;;;12.57;5.03;;;18.30;65.60;;;;;;10366876;28;20065;-54
2021/11/09 14:56:35;;;;;;;9.00;4.20;;;18.30;65.30;;;;;;10374319;28;20022;-54
2021/11/09 15:02:00;;;;;;;17.67;4.47;;;18.30;64.70;;;;;;10371235;28;20046;-46
2021/11/09 15:28:44;;;;;;;8.02;4.25;;;18.10;64.60;;;;;;10372029;28;20050;-50
2021/11/09 15:33:49;;;;;;;8.05;3.70;;;18.10;64.10;;;;;;10372798;28;20033;-53
2021/11/09 15:38:51;;;;;;;6.32;3.45;;;18.10;64.50;;;;;;10364055;28;20437;-51
2021/11/09 15:43:51;;;;;;;6.65;3.33;;;18.30;63.30;;;;;;10352582;28;20030;-53
2021/11/09 15:48:52;;;;;;;8.40;3.40;;;18.70;62.70;;;;;;10358664;28;20482;-49
2021/11/09 15:53:53;;;;;;;7.70;3.08;;;18.80;62.60;;;;;;10365557;28;20034;-50
2021/11/09 15:58:55;;;;;;;7.85;2.80;;;19.00;62.20;;;;;;10359110;28;20104;-49
2021/11/09 16:03:56;;;;;;;7.88;3.00;;;19.00;63.00;;;;;;10339130;28;20434;-49
2021/11/09 16:08:57;;;;;;;7.65;3.15;;;18.90;62.80;;;;;;10337953;28;20029;-48
2021/11/09 16:13:58;;;;;;;7.70;3.13;;;18.80;63.30;;;;;;10352374;28;20132;-49
2021/11/09 16:18:59;;;;;;;8.52;3.17;;;18.70;63.70;;;;;;10358128;28;20030;-48
2021/11/09 16:24:01;;;;;;;9.65;3.25;;;18.80;63.60;;;;;;10334357;28;20113;-49
2021/11/09 16:29:02;;;;;;;12.07;3.75;;;18.80;63.60;;;;;;10369713;28;20084;-56
2021/11/09 16:34:03;;;;;;;9.90;3.45;;;18.70;64.20;;;;;;10368500;28;20084;-55
2021/11/09 16:39:24;;;;;;;14.63;4.00;;;18.60;63.90;;;;;;10377218;28;20038;-56
2021/11/09 16:44:24;;;;;;;8.73;4.10;;;18.70;63.50;;;;;;10358656;28;20447;-55
2021/11/09 16:50:31;;;;;;;7.57;3.80;;;18.70;63.00;;;;;;10370876;28;20489;-53
2021/11/09 16:55:04;;;;;;;9.75;4.20;;;18.80;62.60;;;;;;10362859;28;20033;-55
2021/11/09 17:00:16;;;;;;;12.27;5.43;;;18.70;62.70;;;;;;10373839;28;20037;-54
2021/11/09 17:23:43;;;;;;;10.98;4.50;;;18.90;62.50;;;;;;10375669;28;20521;-50
2021/11/09 18:24:39;;;;;;;9.77;4.40;;;18.40;67.80;;;;;;10376399;28;20049;-49
2021/11/09 18:29:40;;;;;;;13.50;4.43;;;18.40;68.30;;;;;;10353969;28;20038;-48
2021/11/09 18:34:45;;;;;;;14.18;4.03;;;18.40;68.80;;;;;;10347635;28;20034;-50
2021/11/09 18:39:49;;;;;;;13.13;3.85;;;18.40;68.90;;;;;;10389931;28;20038;-49
2021/11/09 18:44:49;;;;;;;13.50;3.75;;;18.30;68.90;;;;;;10374869;28;20133;-52
2021/11/09 18:49:50;;;;;;;11.85;5.00;;;18.30;68.90;;;;;;10374160;28;20441;-52
2021/11/09 18:54:54;;;;;;;8.95;4.18;;;18.30;69.10;;;;;;10356026;28;20038;-50
2021/11/09 18:59:58;;;;;;;9.13;3.50;;;18.30;69.20;;;;;;10356153;28;20386;-52
2021/11/09 19:05:00;;;;;;;8.43;4.25;;;18.30;69.60;;;;;;10353050;28;20054;-49
2021/11/09 19:10:02;;;;;;;8.30;3.85;;;18.20;69.50;;;;;;10356173;28;20027;-47
2021/11/09 19:15:06;;;;;;;13.75;4.80;;;18.20;69.80;;;;;;10358041;28;20071;-49
2021/11/09 19:20:10;;;;;;;8.25;4.00;;;18.20;69.90;;;;;;10359346;28;20030;-50
2021/11/09 19:25:13;;;;;;;7.60;4.72;;;18.20;69.60;;;;;;10361609;28;20040;-51
2021/11/09 19:30:21;;;;;;;9.45;4.22;;;18.20;69.70;;;;;;10356387;28;20105;-53
2021/11/09 19:35:22;;;;;;;8.98;4.13;;;18.10;69.80;;;;;;10343188;28;20073;-53
2021/11/09 19:40:23;;;;;;;10.32;4.32;;;18.10;69.70;;;;;;10338530;28;20106;-48
2021/11/09 19:45:29;;;;;;;8.02;4.07;;;18.10;69.70;;;;;;10332183;28;20500;-51
2021/11/09 19:50:33;;;;;;;8.10;4.35;;;18.00;69.80;;;;;;10334896;28;20042;-51
2021/11/09 19:55:45;;;;;;;8.23;4.03;;;18.10;69.70;;;;;;10367751;28;20410;-50
2021/11/09 20:00:51;;;;;;;5.88;4.45;;;18.10;69.60;;;;;;10370735;28;20065;-53
2021/11/09 20:05:55;;;;;;;6.60;3.83;;;18.10;69.50;;;;;;10345763;28;20080;-51
2021/11/09 20:10:57;;;;;;;7.25;4.32;;;18.10;69.70;;;;;;10370166;28;20113;-50
2021/11/09 20:16:00;;;;;;;11.70;4.80;;;18.10;69.90;;;;;;10372344;28;20030;-51
2021/11/09 20:21:01;;;;;;;9.77;3.83;;;18.00;70.00;;;;;;10371033;28;20061;-54
2021/11/09 20:26:06;;;;;;;10.10;4.13;;;18.00;70.00;;;;;;10369920;28;20133;-53
2021/11/09 20:31:07;;;;;;;5.57;3.70;;;17.90;70.20;;;;;;10369573;28;20065;-54
2021/11/09 20:36:09;;;;;;;5.97;3.95;;;17.80;70.20;;;;;;10370092;28;20029;-50
2021/11/09 20:41:15;;;;;;;6.18;4.28;;;17.80;70.40;;;;;;10351171;28;20092;-52
2021/11/09 20:46:17;;;;;;;7.35;3.88;;;17.80;70.40;;;;;;10371589;28;20145;-53
2021/11/09 20:51:20;;;;;;;7.05;3.53;;;17.70;70.40;;;;;;10371152;28;20034;-54
2021/11/09 20:56:21;;;;;;;9.30;4.20;;;17.70;70.40;;;;;;10371459;28;20030;-53
2021/11/09 21:01:22;;;;;;;4.82;3.03;;;17.60;70.40;;;;;;10371017;28;20157;-50
2021/11/09 21:06:22;;;;;;;5.63;3.15;;;17.60;70.50;;;;;;10370083;28;20030;-52
2021/11/09 21:11:23;;;;;;;8.30;3.75;;;17.50;70.40;;;;;;10368086;28;20141;-52
2021/11/09 21:21:43;;;;;;;9.10;4.10;;;17.50;70.40;;;;;;10348666;28;20038;-53
2021/11/09 21:26:44;;;;;;;7.18;3.60;;;17.50;70.50;;;;;;10337637;28;20054;-52
2021/11/09 21:36:49;;;;;;;5.43;3.53;;;17.40;70.50;;;;;;10361235;28;20046;-54
2021/11/09 21:41:51;;;;;;;5.43;3.17;;;17.40;70.50;;;;;;10377509;28;20026;-52
2021/11/09 21:46:53;;;;;;;5.25;3.55;;;17.40;70.50;;;;;;10377123;28;20140;-51
2021/11/09 21:51:54;;;;;;;4.30;2.90;;;17.40;70.50;;;;;;10376807;28;20037;-53
2021/11/09 21:56:55;;;;;;;6.57;3.45;;;17.30;70.50;;;;;;10377022;28;20148;-52
2021/11/09 22:01:56;;;;;;;8.10;3.88;;;17.40;70.50;;;;;;10376764;28;20502;-52
2021/11/09 22:06:56;;;;;;;5.35;3.10;;;17.40;70.50;;;;;;10376625;28;20034;-53
2021/11/09 22:11:58;;;;;;;3.83;2.50;;;17.30;70.40;;;;;;10358431;28;20030;-54
2021/11/09 22:17:00;;;;;;;3.78;2.65;;;17.40;70.30;;;;;;10335620;28;20407;-52
2021/11/09 22:22:01;;;;;;;4.50;2.95;;;17.40;70.30;;;;;;10346575;28;20057;-54
2021/11/09 22:27:02;;;;;;;3.67;2.60;;;17.40;70.40;;;;;;10333610;28;20029;-54
2021/11/09 22:32:03;;;;;;;5.53;3.30;;;17.40;70.10;;;;;;10344867;28;20065;-50
2021/11/09 22:37:03;;;;;;;4.63;3.05;;;17.50;69.80;;;;;;10359456;28;20481;-51
2021/11/09 22:42:04;;;;;;;4.60;2.90;;;17.50;69.80;;;;;;10356311;28;20038;-50
2021/11/09 22:47:05;;;;;;;6.32;3.47;;;17.40;69.70;;;;;;10334146;28;20066;-52
2021/11/09 22:52:06;;;;;;;5.90;3.20;;;17.60;69.70;;;;;;10345145;28;20049;-53
2021/11/09 22:57:07;;;;;;;4.50;2.60;;;17.50;69.50;;;;;;10334182;28;20104;-53
2021/11/09 23:02:07;;;;;;;6.38;3.13;;;17.60;69.50;;;;;;10342038;28;20077;-53
2021/11/09 23:07:08;;;;;;;3.95;2.35;;;17.60;69.20;;;;;;10334009;28;20518;-52
2021/11/09 23:12:09;;;;;;;3.97;2.45;;;17.70;69.10;;;;;;10359060;28;20049;-54
2021/11/09 23:17:09;;;;;;;4.25;2.72;;;17.60;69.10;;;;;;10339224;28;20410;-52
2021/11/09 23:22:10;;;;;;;4.20;2.42;;;17.60;69.20;;;;;;10344944;28;20121;-54
2021/11/09 23:27:11;;;;;;;4.20;2.55;;;17.60;69.30;;;;;;10333322;28;20105;-53
2021/11/09 23:32:13;;;;;;;4.57;2.63;;;17.50;69.40;;;;;;10371195;28;20112;-53
2021/11/09 23:37:14;;;;;;;3.70;2.80;;;17.50;69.50;;;;;;10360033;28;20029;-50
2021/11/09 23:42:14;;;;;;;4.20;2.42;;;17.40;69.60;;;;;;10344936;28;20038;-52
2021/11/09 23:47:15;;;;;;;4.10;2.40;;;17.40;69.70;;;;;;10333004;28;20121;-52
2021/11/09 23:52:17;;;;;;;4.05;2.08;;;17.50;69.70;;;;;;10342050;28;20041;-53
2021/11/09 23:57:17;;;;;;;5.68;2.38;;;17.50;69.30;;;;;;10336275;28;20714;-53
